sensor_id;sensor_type;location;lat;lon;timestamp;pressure;altitude;pressure_sealevel;temperature;humidity
78573;BME280;67862;0.000;0.000;2023-11-22T00:00:08;98793.09;;;18.27;54.98
78573;BME280;67862;0.000;0.000;2023-11-22T00:02:38;98788.75;;;18.26;54.69
78573;BME280;67862;0.000;0.000;2023-11-22T00:05:04;98796.63;;;18.27;54.62
78573;BME280;67862;0.000;0.000;2023-11-22T00:07:30;98797.72;;;18.26;54.71
78573;BME280;67862;0.000;0.000;2023-11-22T00:09:56;98796.91;;;18.26;54.79
78573;BME280;67862;0.000;0.000;2023-11-22T00:12:21;98816.47;;;18.28;54.85
78573;BME280;67862;0.000;0.000;2023-11-22T00:14:48;98818.66;;;18.26;54.90
78573;BME280;67862;0.000;0.000;2023-11-22T00:17:13;98810.50;;;18.26;54.96
78573;BME280;67862;0.000;0.000;2023-11-22T00:19:38;98810.50;;;18.26;54.89
78573;BME280;67862;0.000;0.000;2023-11-22T00:22:05;98818.66;;;18.26;54.55
78573;BME280;67862;0.000;0.000;2023-11-22T00:24:38;98818.66;;;18.26;54.51
78573;BME280;67862;0.000;0.000;2023-11-22T00:27:04;98818.66;;;18.26;54.72
78573;BME280;67862;0.000;0.000;2023-11-22T00:29:30;98819.75;;;18.25;54.90
78573;BME280;67862;0.000;0.000;2023-11-22T00:31:55;98817.84;;;18.25;54.85
78573;BME280;67862;0.000;0.000;2023-11-22T00:34:21;98823.28;;;18.25;55.05
78573;BME280;67862;0.000;0.000;2023-11-22T00:36:46;98819.75;;;18.25;54.96
78573;BME280;67862;0.000;0.000;2023-11-22T00:39:12;98818.66;;;18.26;54.55
78573;BME280;67862;0.000;0.000;2023-11-22T00:41:38;98815.13;;;18.25;54.72
78573;BME280;67862;0.000;0.000;2023-11-22T00:44:04;98809.69;;;18.25;54.60
78573;BME280;67862;0.000;0.000;2023-11-22T00:46:31;98814.31;;;18.25;54.72
78573;BME280;67862;0.000;0.000;2023-11-22T00:48:56;98806.16;;;18.25;54.64
78573;BME280;67862;0.000;0.000;2023-11-22T00:51:22;98810.78;;;18.24;54.84
78573;BME280;67862;0.000;0.000;2023-11-22T00:53:47;98809.97;;;18.24;55.00
78573;BME280;67862;0.000;0.000;2023-11-22T00:56:12;98805.34;;;18.24;54.74
78573;BME280;67862;0.000;0.000;2023-11-22T00:58:38;98802.63;;;18.24;54.56
78573;BME280;67862;0.000;0.000;2023-11-22T01:01:03;98803.69;;;18.23;54.85
78573;BME280;67862;0.000;0.000;2023-11-22T01:03:29;98802.88;;;18.23;54.83
78573;BME280;67862;0.000;0.000;2023-11-22T01:05:55;98800.16;;;18.23;55.01
78573;BME280;67862;0.000;0.000;2023-11-22T01:08:20;98802.88;;;18.23;54.79
78573;BME280;67862;0.000;0.000;2023-11-22T01:10:46;98807.50;;;18.22;54.93
78573;BME280;67862;0.000;0.000;2023-11-22T01:13:12;98807.50;;;18.22;54.82
78573;BME280;67862;0.000;0.000;2023-11-22T01:15:37;98809.41;;;18.22;54.52
78573;BME280;67862;0.000;0.000;2023-11-22T01:18:02;98813.75;;;18.23;54.59
78573;BME280;67862;0.000;0.000;2023-11-22T01:20:28;98815.66;;;18.22;54.92
78573;BME280;67862;0.000;0.000;2023-11-22T01:22:54;98818.66;;;18.21;54.69
78573;BME280;67862;0.000;0.000;2023-11-22T01:25:19;98817.84;;;18.20;54.54
78573;BME280;67862;0.000;0.000;2023-11-22T01:27:44;98815.13;;;18.20;55.03
78573;BME280;67862;0.000;0.000;2023-11-22T01:30:10;98824.91;;;18.21;54.86
78573;BME280;67862;0.000;0.000;2023-11-22T01:32:37;98828.44;;;18.22;54.93
78573;BME280;67862;0.000;0.000;2023-11-22T01:35:02;98831.16;;;18.22;54.56
78573;BME280;67862;0.000;0.000;2023-11-22T01:37:31;98832.25;;;18.21;55.07
78573;BME280;67862;0.000;0.000;2023-11-22T01:39:57;98838.75;;;18.20;54.83
78573;BME280;67862;0.000;0.000;2023-11-22T01:42:23;98846.09;;;18.19;54.66
78573;BME280;67862;0.000;0.000;2023-11-22T01:44:50;98846.91;;;18.20;54.87
78573;BME280;67862;0.000;0.000;2023-11-22T01:47:16;98852.34;;;18.20;54.82
78573;BME280;67862;0.000;0.000;2023-11-22T01:49:42;98851.53;;;18.19;54.81
78573;BME280;67862;0.000;0.000;2023-11-22T01:52:08;98856.16;;;18.19;54.68
78573;BME280;67862;0.000;0.000;2023-11-22T01:54:34;98839.84;;;18.19;54.53
78573;BME280;67862;0.000;0.000;2023-11-22T01:56:59;98853.44;;;18.19;54.68
78573;BME280;67862;0.000;0.000;2023-11-22T01:59:25;98850.72;;;18.19;54.62
78573;BME280;67862;0.000;0.000;2023-11-22T02:01:51;98848.28;;;18.17;54.84
78573;BME280;67862;0.000;0.000;2023-11-22T02:04:18;98852.63;;;18.18;54.65
78573;BME280;67862;0.000;0.000;2023-11-22T02:06:43;98848.28;;;18.17;54.77
78573;BME280;67862;0.000;0.000;2023-11-22T02:09:08;98849.09;;;18.18;54.73
78573;BME280;67862;0.000;0.000;2023-11-22T02:11:39;98851.81;;;18.18;54.81
78573;BME280;67862;0.000;0.000;2023-11-22T02:14:04;98851.00;;;18.17;54.60
78573;BME280;67862;0.000;0.000;2023-11-22T02:16:32;98847.47;;;18.17;54.75
78573;BME280;67862;0.000;0.000;2023-11-22T02:18:57;98854.81;;;18.16;54.53
78573;BME280;67862;0.000;0.000;2023-11-22T02:21:23;98849.38;;;18.16;54.79
78573;BME280;67862;0.000;0.000;2023-11-22T02:23:48;98848.56;;;18.16;54.51
78573;BME280;67862;0.000;0.000;2023-11-22T02:26:14;98858.34;;;18.17;54.75
78573;BME280;67862;0.000;0.000;2023-11-22T02:28:43;98859.44;;;18.16;54.63
78573;BME280;67862;0.000;0.000;2023-11-22T02:31:08;98851.28;;;18.16;54.61
78573;BME280;67862;0.000;0.000;2023-11-22T02:33:34;98862.16;;;18.16;54.73
78573;BME280;67862;0.000;0.000;2023-11-22T02:36:00;98856.72;;;18.16;54.76
78573;BME280;67862;0.000;0.000;2023-11-22T02:38:27;98852.38;;;18.15;54.85
78573;BME280;67862;0.000;0.000;2023-11-22T02:40:53;98863.25;;;18.15;54.51
78573;BME280;67862;0.000;0.000;2023-11-22T02:43:19;98865.97;;;18.15;55.07
78573;BME280;67862;0.000;0.000;2023-11-22T02:45:44;98864.31;;;18.14;54.62
78573;BME280;67862;0.000;0.000;2023-11-22T02:48:09;98867.03;;;18.14;54.65
78573;BME280;67862;0.000;0.000;2023-11-22T02:50:35;98869.75;;;18.14;55.02
78573;BME280;67862;0.000;0.000;2023-11-22T02:53:00;98869.75;;;18.14;54.87
78573;BME280;67862;0.000;0.000;2023-11-22T02:55:26;98869.75;;;18.14;54.54
78573;BME280;67862;0.000;0.000;2023-11-22T02:57:51;98873.28;;;18.14;54.50
78573;BME280;67862;0.000;0.000;2023-11-22T03:00:17;98875.19;;;18.14;54.55
78573;BME280;67862;0.000;0.000;2023-11-22T03:02:44;98878.97;;;18.13;54.46
78573;BME280;67862;0.000;0.000;2023-11-22T03:05:10;98886.03;;;18.14;54.75
78573;BME280;67862;0.000;0.000;2023-11-22T03:07:36;98892.56;;;18.13;54.71
78573;BME280;67862;0.000;0.000;2023-11-22T03:10:02;98895.28;;;18.13;54.82
78573;BME280;67862;0.000;0.000;2023-11-22T03:12:27;98892.56;;;18.13;54.66
78573;BME280;67862;0.000;0.000;2023-11-22T03:14:53;98901.53;;;18.13;54.43
78573;BME280;67862;0.000;0.000;2023-11-22T03:17:23;98898.28;;;18.11;54.75
78573;BME280;67862;0.000;0.000;2023-11-22T03:19:49;98898.28;;;18.11;54.44
78573;BME280;67862;0.000;0.000;2023-11-22T03:22:14;98897.19;;;18.12;54.73
78573;BME280;67862;0.000;0.000;2023-11-22T03:24:39;98907.25;;;18.12;54.67
78573;BME280;67862;0.000;0.000;2023-11-22T03:27:05;98907.25;;;18.12;54.82
78573;BME280;67862;0.000;0.000;2023-11-22T03:29:31;98913.50;;;18.12;54.79
78573;BME280;67862;0.000;0.000;2023-11-22T03:31:56;98920.81;;;18.12;54.62
78573;BME280;67862;0.000;0.000;2023-11-22T03:34:21;98920.81;;;18.12;54.88
78573;BME280;67862;0.000;0.000;2023-11-22T03:36:47;98915.38;;;18.12;54.79
78573;BME280;67862;0.000;0.000;2023-11-22T03:39:14;98919.19;;;18.11;54.52
78573;BME280;67862;0.000;0.000;2023-11-22T03:41:40;98917.56;;;18.10;54.75
78573;BME280;67862;0.000;0.000;2023-11-22T03:44:07;98922.19;;;18.09;54.81
78573;BME280;67862;0.000;0.000;2023-11-22T03:46:34;98932.78;;;18.11;54.90
78573;BME280;67862;0.000;0.000;2023-11-22T03:49:01;98931.16;;;18.10;54.66
78573;BME280;67862;0.000;0.000;2023-11-22T03:51:28;98934.69;;;18.10;54.67
78573;BME280;67862;0.000;0.000;2023-11-22T03:53:53;98936.88;;;18.08;54.56
78573;BME280;67862;0.000;0.000;2023-11-22T03:56:18;98943.13;;;18.09;54.62
78573;BME280;67862;0.000;0.000;2023-11-22T03:58:44;98936.88;;;18.08;54.72
78573;BME280;67862;0.000;0.000;2023-11-22T04:01:09;98950.16;;;18.10;54.59
78573;BME280;67862;0.000;0.000;2023-11-22T04:03:35;98941.50;;;18.08;54.85
78573;BME280;67862;0.000;0.000;2023-11-22T04:06:00;98946.91;;;18.08;54.75
78573;BME280;67862;0.000;0.000;2023-11-22T04:08:26;98944.19;;;18.08;54.88
78573;BME280;67862;0.000;0.000;2023-11-22T04:10:52;98941.50;;;18.08;54.71
78573;BME280;67862;0.000;0.000;2023-11-22T04:13:17;98936.06;;;18.08;54.66
78573;BME280;67862;0.000;0.000;2023-11-22T04:15:42;98946.09;;;18.07;54.71
78573;BME280;67862;0.000;0.000;2023-11-22T04:18:08;98950.72;;;18.07;54.76
78573;BME280;67862;0.000;0.000;2023-11-22T04:20:33;98951.81;;;18.06;54.67
78573;BME280;67862;0.000;0.000;2023-11-22T04:22:59;98958.88;;;18.07;54.51
78573;BME280;67862;0.000;0.000;2023-11-22T04:25:24;98954.53;;;18.06;54.52
78573;BME280;67862;0.000;0.000;2023-11-22T04:27:50;98959.97;;;18.06;54.51
78573;BME280;67862;0.000;0.000;2023-11-22T04:30:15;98965.41;;;18.06;54.64
78573;BME280;67862;0.000;0.000;2023-11-22T04:32:42;98956.44;;;18.05;54.59
78573;BME280;67862;0.000;0.000;2023-11-22T04:35:07;98954.53;;;18.06;54.64
78573;BME280;67862;0.000;0.000;2023-11-22T04:37:33;98960.22;;;18.04;54.79
78573;BME280;67862;0.000;0.000;2023-11-22T04:39:59;98958.31;;;18.05;54.70
78573;BME280;67862;0.000;0.000;2023-11-22T04:42:24;98969.19;;;18.05;54.77
78573;BME280;67862;0.000;0.000;2023-11-22T04:44:53;98971.91;;;18.05;54.85
78573;BME280;67862;0.000;0.000;2023-11-22T04:47:18;98980.31;;;18.03;54.70
78573;BME280;67862;0.000;0.000;2023-11-22T04:49:44;98977.59;;;18.03;54.65
78573;BME280;67862;0.000;0.000;2023-11-22T04:52:09;98975.97;;;18.02;54.90
78573;BME280;67862;0.000;0.000;2023-11-22T04:54:35;98972.44;;;18.01;54.78
78573;BME280;67862;0.000;0.000;2023-11-22T04:57:00;98975.97;;;18.02;54.77
78573;BME280;67862;0.000;0.000;2023-11-22T04:59:26;98972.44;;;18.01;54.34
78573;BME280;67862;0.000;0.000;2023-11-22T05:01:51;98976.25;;;18.00;54.72
78573;BME280;67862;0.000;0.000;2023-11-22T05:04:16;98986.03;;;18.01;54.64
78573;BME280;67862;0.000;0.000;2023-11-22T05:06:43;98975.97;;;18.02;54.81
78573;BME280;67862;0.000;0.000;2023-11-22T05:09:09;98991.47;;;18.01;54.37
78573;BME280;67862;0.000;0.000;2023-11-22T05:11:36;98990.66;;;18.01;54.71
78573;BME280;67862;0.000;0.000;2023-11-22T05:14:01;98995.25;;;18.00;54.59
78573;BME280;67862;0.000;0.000;2023-11-22T05:16:27;99002.59;;;18.00;54.69
78573;BME280;67862;0.000;0.000;2023-11-22T05:18:52;98999.06;;;17.99;54.73
78573;BME280;67862;0.000;0.000;2023-11-22T05:21:18;99006.13;;;18.00;54.63
78573;BME280;67862;0.000;0.000;2023-11-22T05:23:43;99010.75;;;18.00;54.81
78573;BME280;67862;0.000;0.000;2023-11-22T05:26:08;99006.41;;;17.99;54.86
78573;BME280;67862;0.000;0.000;2023-11-22T05:28:34;99014.56;;;17.99;54.54
78573;BME280;67862;0.000;0.000;2023-11-22T05:31:00;99012.66;;;17.99;54.73
78573;BME280;67862;0.000;0.000;2023-11-22T05:33:25;99012.66;;;17.99;54.74
78573;BME280;67862;0.000;0.000;2023-11-22T05:35:50;99013.75;;;17.98;54.50
78573;BME280;67862;0.000;0.000;2023-11-22T05:38:16;99021.88;;;17.98;54.82
78573;BME280;67862;0.000;0.000;2023-11-22T05:40:41;99018.34;;;17.98;54.71
78573;BME280;67862;0.000;0.000;2023-11-22T05:43:08;99028.41;;;17.97;54.62
78573;BME280;67862;0.000;0.000;2023-11-22T05:45:35;99027.59;;;17.97;54.72
78573;BME280;67862;0.000;0.000;2023-11-22T05:48:00;99038.19;;;17.98;54.76
78573;BME280;67862;0.000;0.000;2023-11-22T05:50:26;99039.28;;;17.97;54.67
78573;BME280;67862;0.000;0.000;2023-11-22T05:52:51;99042.00;;;17.97;54.52
78573;BME280;67862;0.000;0.000;2023-11-22T05:55:17;99042.25;;;17.96;54.86
78573;BME280;67862;0.000;0.000;2023-11-22T05:57:43;99045.78;;;17.96;54.63
78573;BME280;67862;0.000;0.000;2023-11-22T06:00:09;99052.31;;;17.95;54.51
78573;BME280;67862;0.000;0.000;2023-11-22T06:02:34;99055.03;;;17.95;54.77
78573;BME280;67862;0.000;0.000;2023-11-22T06:05:01;99053.94;;;17.96;54.75
78573;BME280;67862;0.000;0.000;2023-11-22T06:07:27;99063.19;;;17.95;54.64
78573;BME280;67862;0.000;0.000;2023-11-22T06:09:52;99072.13;;;17.96;54.93
78573;BME280;67862;0.000;0.000;2023-11-22T06:12:18;99077.81;;;17.94;54.79
78573;BME280;67862;0.000;0.000;2023-11-22T06:14:46;99076.75;;;17.95;54.65
78573;BME280;67862;0.000;0.000;2023-11-22T06:17:11;99087.03;;;17.93;54.82
78573;BME280;67862;0.000;0.000;2023-11-22T06:19:37;99088.69;;;17.94;54.97
78573;BME280;67862;0.000;0.000;2023-11-22T06:22:02;99089.75;;;17.93;54.80
78573;BME280;67862;0.000;0.000;2023-11-22T06:24:28;99089.75;;;17.93;54.91
78573;BME280;67862;0.000;0.000;2023-11-22T06:26:53;99098.72;;;17.94;54.94
78573;BME280;67862;0.000;0.000;2023-11-22T06:29:19;99107.97;;;17.93;54.58
78573;BME280;67862;0.000;0.000;2023-11-22T06:31:45;99114.19;;;17.93;54.84
78573;BME280;67862;0.000;0.000;2023-11-22T06:34:11;99112.56;;;17.92;54.48
78573;BME280;67862;0.000;0.000;2023-11-22T06:36:37;99114.47;;;17.92;54.88
78573;BME280;67862;0.000;0.000;2023-11-22T06:39:03;99127.25;;;17.91;54.54
78573;BME280;67862;0.000;0.000;2023-11-22T06:41:29;99125.34;;;17.92;54.64
78573;BME280;67862;0.000;0.000;2023-11-22T06:43:54;99127.25;;;17.91;54.50
78573;BME280;67862;0.000;0.000;2023-11-22T06:46:20;99129.69;;;17.93;54.91
78573;BME280;67862;0.000;0.000;2023-11-22T06:48:48;99131.84;;;17.91;54.82
78573;BME280;67862;0.000;0.000;2023-11-22T06:51:15;99138.09;;;17.91;54.54
78573;BME280;67862;0.000;0.000;2023-11-22T06:53:40;99153.59;;;17.91;54.83
78573;BME280;67862;0.000;0.000;2023-11-22T06:56:06;99146.25;;;17.91;54.76
78573;BME280;67862;0.000;0.000;2023-11-22T06:58:31;99152.78;;;17.90;54.62
78573;BME280;67862;0.000;0.000;2023-11-22T07:00:57;99147.34;;;17.90;54.51
78573;BME280;67862;0.000;0.000;2023-11-22T07:03:22;99158.19;;;17.90;54.51
78573;BME280;67862;0.000;0.000;2023-11-22T07:05:47;99158.19;;;17.90;54.83
78573;BME280;67862;0.000;0.000;2023-11-22T07:08:13;99157.38;;;17.90;54.70
78573;BME280;67862;0.000;0.000;2023-11-22T07:10:41;99167.44;;;17.89;54.62
78573;BME280;67862;0.000;0.000;2023-11-22T07:13:07;99172.06;;;17.89;54.82
78573;BME280;67862;0.000;0.000;2023-11-22T07:15:32;99172.88;;;17.89;54.93
78573;BME280;67862;0.000;0.000;2023-11-22T07:17:58;99193.50;;;17.90;54.76
78573;BME280;67862;0.000;0.000;2023-11-22T07:20:23;99184.53;;;17.90;54.94
78573;BME280;67862;0.000;0.000;2023-11-22T07:22:49;99187.25;;;17.90;54.83
78573;BME280;67862;0.000;0.000;2023-11-22T07:25:20;99179.13;;;17.90;54.59
78573;BME280;67862;0.000;0.000;2023-11-22T07:27:50;99182.91;;;17.89;54.76
78573;BME280;67862;0.000;0.000;2023-11-22T07:30:16;99188.34;;;17.89;54.64
78573;BME280;67862;0.000;0.000;2023-11-22T07:32:44;99190.25;;;17.88;54.54
78573;BME280;67862;0.000;0.000;2023-11-22T07:35:09;99191.06;;;17.89;54.79
78573;BME280;67862;0.000;0.000;2023-11-22T07:37:35;99186.44;;;17.89;54.54
78573;BME280;67862;0.000;0.000;2023-11-22T07:40:09;99189.16;;;17.89;54.75
78573;BME280;67862;0.000;0.000;2023-11-22T07:42:38;99195.69;;;17.88;54.78
78573;BME280;67862;0.000;0.000;2023-11-22T07:45:04;99195.69;;;17.88;54.67
78573;BME280;67862;0.000;0.000;2023-11-22T07:47:29;99190.25;;;17.88;54.58
78573;BME280;67862;0.000;0.000;2023-11-22T07:49:55;99198.41;;;17.88;54.85
78573;BME280;67862;0.000;0.000;2023-11-22T07:52:23;99199.47;;;17.87;54.93
78573;BME280;67862;0.000;0.000;2023-11-22T07:54:55;99209.25;;;17.88;54.61
78573;BME280;67862;0.000;0.000;2023-11-22T07:57:21;99214.69;;;17.88;54.70
78573;BME280;67862;0.000;0.000;2023-11-22T07:59:48;99211.97;;;17.88;54.43
78573;BME280;67862;0.000;0.000;2023-11-22T08:02:14;99208.16;;;17.89;54.64
78573;BME280;67862;0.000;0.000;2023-11-22T08:04:44;99214.69;;;17.88;54.81
78573;BME280;67862;0.000;0.000;2023-11-22T08:07:10;99225.53;;;17.88;54.63
78573;BME280;67862;0.000;0.000;2023-11-22T08:09:36;99225.53;;;17.88;54.57
78573;BME280;67862;0.000;0.000;2023-11-22T08:12:01;99228.25;;;17.88;54.55
78573;BME280;67862;0.000;0.000;2023-11-22T08:14:28;99238.31;;;17.88;54.74
78573;BME280;67862;0.000;0.000;2023-11-22T08:16:53;99238.03;;;17.89;54.50
78573;BME280;67862;0.000;0.000;2023-11-22T08:19:19;99245.66;;;17.87;54.75
78573;BME280;67862;0.000;0.000;2023-11-22T08:21:44;99253.53;;;17.89;54.60
78573;BME280;67862;0.000;0.000;2023-11-22T08:24:10;99247.28;;;17.88;54.82
78573;BME280;67862;0.000;0.000;2023-11-22T08:26:38;99256.22;;;17.89;54.60
78573;BME280;67862;0.000;0.000;2023-11-22T08:29:04;99257.06;;;17.89;54.62
78573;BME280;67862;0.000;0.000;2023-11-22T08:31:30;99255.41;;;17.88;54.52
78573;BME280;67862;0.000;0.000;2023-11-22T08:33:55;99252.69;;;17.88;54.77
78573;BME280;67862;0.000;0.000;2023-11-22T08:36:20;99252.69;;;17.88;54.83
78573;BME280;67862;0.000;0.000;2023-11-22T08:38:46;99253.53;;;17.89;54.56
78573;BME280;67862;0.000;0.000;2023-11-22T08:41:11;99261.41;;;17.90;54.67
78573;BME280;67862;0.000;0.000;2023-11-22T08:43:38;99257.88;;;17.90;54.75
78573;BME280;67862;0.000;0.000;2023-11-22T08:46:04;99263.31;;;17.90;54.61
78573;BME280;67862;0.000;0.000;2023-11-22T08:48:30;99259.50;;;17.91;54.40
78573;BME280;67862;0.000;0.000;2023-11-22T08:50:55;99251.34;;;17.91;54.50
78573;BME280;67862;0.000;0.000;2023-11-22T08:53:22;99259.50;;;17.91;54.65
78573;BME280;67862;0.000;0.000;2023-11-22T08:55:48;99257.59;;;17.91;54.73
78573;BME280;67862;0.000;0.000;2023-11-22T08:58:13;99255.44;;;17.93;54.61
78573;BME280;67862;0.000;0.000;2023-11-22T09:00:54;99251.06;;;17.92;54.50
78573;BME280;67862;0.000;0.000;2023-11-22T09:03:19;99252.97;;;17.92;54.59
78573;BME280;67862;0.000;0.000;2023-11-22T09:05:44;99251.63;;;17.94;54.49
78573;BME280;67862;0.000;0.000;2023-11-22T09:08:11;99250.81;;;17.94;54.50
78573;BME280;67862;0.000;0.000;2023-11-22T09:10:40;99251.63;;;17.94;54.54
78573;BME280;67862;0.000;0.000;2023-11-22T09:13:07;99256.00;;;17.95;54.65
78573;BME280;67862;0.000;0.000;2023-11-22T09:15:33;99262.25;;;17.96;54.58
78573;BME280;67862;0.000;0.000;2023-11-22T09:18:00;99257.63;;;17.96;54.42
78573;BME280;67862;0.000;0.000;2023-11-22T09:20:26;99263.88;;;17.97;54.60
78573;BME280;67862;0.000;0.000;2023-11-22T09:22:53;99261.97;;;17.97;54.72
78573;BME280;67862;0.000;0.000;2023-11-22T09:25:20;99268.22;;;17.98;54.39
78573;BME280;67862;0.000;0.000;2023-11-22T09:27:46;99275.56;;;17.97;54.39
78573;BME280;67862;0.000;0.000;2023-11-22T09:30:13;99275.28;;;17.99;54.68
78573;BME280;67862;0.000;0.000;2023-11-22T09:32:45;99281.53;;;17.99;54.60
78573;BME280;67862;0.000;0.000;2023-11-22T09:35:11;99278.81;;;17.99;54.36
78573;BME280;67862;0.000;0.000;2023-11-22T09:37:39;99287.78;;;18.00;54.30
78573;BME280;67862;0.000;0.000;2023-11-22T09:40:07;99280.44;;;18.00;54.57
78573;BME280;67862;0.000;0.000;2023-11-22T09:42:34;99283.97;;;18.01;54.21
78573;BME280;67862;0.000;0.000;2023-11-22T09:44:59;99286.44;;;18.02;54.46
78573;BME280;67862;0.000;0.000;2023-11-22T09:47:25;99284.81;;;18.01;54.45
78573;BME280;67862;0.000;0.000;2023-11-22T09:49:51;99279.38;;;18.01;54.35
78573;BME280;67862;0.000;0.000;2023-11-22T09:52:17;99281.00;;;18.02;54.28
78573;BME280;67862;0.000;0.000;2023-11-22T09:54:46;99282.91;;;18.02;54.36
78573;BME280;67862;0.000;0.000;2023-11-22T09:57:14;99288.06;;;18.03;54.20
78573;BME280;67862;0.000;0.000;2023-11-22T09:59:42;99291.59;;;18.04;54.49
78573;BME280;67862;0.000;0.000;2023-11-22T10:02:08;99296.78;;;18.06;54.44
78573;BME280;67862;0.000;0.000;2023-11-22T10:04:34;99301.41;;;18.05;54.37
78573;BME280;67862;0.000;0.000;2023-11-22T10:06:59;99314.72;;;18.07;54.29
78573;BME280;67862;0.000;0.000;2023-11-22T10:09:25;99312.81;;;18.07;54.27
78573;BME280;67862;0.000;0.000;2023-11-22T10:11:58;99312.53;;;18.09;54.45
78573;BME280;67862;0.000;0.000;2023-11-22T10:14:23;99303.31;;;18.10;54.38
78573;BME280;67862;0.000;0.000;2023-11-22T10:16:58;99304.94;;;18.11;54.25
78573;BME280;67862;0.000;0.000;2023-11-22T10:19:23;99303.03;;;18.11;54.20
78573;BME280;67862;0.000;0.000;2023-11-22T10:22:00;99307.38;;;18.12;54.48
78573;BME280;67862;0.000;0.000;2023-11-22T10:24:29;99310.09;;;18.12;54.19
78573;BME280;67862;0.000;0.000;2023-11-22T10:26:55;99314.44;;;18.13;54.16
78573;BME280;67862;0.000;0.000;2023-11-22T10:29:24;99320.69;;;18.14;54.37
78573;BME280;67862;0.000;0.000;2023-11-22T10:31:50;99319.66;;;18.15;54.59
78573;BME280;67862;0.000;0.000;2023-11-22T10:34:20;99320.69;;;18.14;54.24
78573;BME280;67862;0.000;0.000;2023-11-22T10:36:47;99325.06;;;18.15;54.45
78573;BME280;67862;0.000;0.000;2023-11-22T10:39:12;99332.16;;;18.16;54.39
78573;BME280;67862;0.000;0.000;2023-11-22T10:41:41;99331.06;;;18.17;54.46
78573;BME280;67862;0.000;0.000;2023-11-22T10:44:07;99332.69;;;18.18;54.48
78573;BME280;67862;0.000;0.000;2023-11-22T10:46:33;99344.38;;;18.18;54.27
78573;BME280;67862;0.000;0.000;2023-11-22T10:48:59;99350.63;;;18.19;54.25
78573;BME280;67862;0.000;0.000;2023-11-22T10:51:26;99349.53;;;18.20;54.43
78573;BME280;67862;0.000;0.000;2023-11-22T10:53:55;99348.44;;;18.21;54.27
78573;BME280;67862;0.000;0.000;2023-11-22T10:56:21;99357.41;;;18.21;54.46
78573;BME280;67862;0.000;0.000;2023-11-22T10:58:48;99356.34;;;18.22;54.34
78573;BME280;67862;0.000;0.000;2023-11-22T11:01:15;99361.53;;;18.24;54.58
78573;BME280;67862;0.000;0.000;2023-11-22T11:03:41;99353.38;;;18.24;54.24
78573;BME280;67862;0.000;0.000;2023-11-22T11:06:14;99357.72;;;18.25;54.39
78573;BME280;67862;0.000;0.000;2023-11-22T11:08:40;99355.81;;;18.25;54.36
78573;BME280;67862;0.000;0.000;2023-11-22T11:11:06;99371.03;;;18.26;54.18
78573;BME280;67862;0.000;0.000;2023-11-22T11:13:32;99368.06;;;18.28;54.32
78573;BME280;67862;0.000;0.000;2023-11-22T11:15:57;99374.31;;;18.28;54.22
78573;BME280;67862;0.000;0.000;2023-11-22T11:18:23;99376.75;;;18.30;54.36
78573;BME280;67862;0.000;0.000;2023-11-22T11:20:53;99371.31;;;18.30;54.22
78573;BME280;67862;0.000;0.000;2023-11-22T11:23:25;99374.03;;;18.30;54.11
78573;BME280;67862;0.000;0.000;2023-11-22T11:25:55;99375.66;;;18.31;54.09
78573;BME280;67862;0.000;0.000;2023-11-22T11:28:24;99371.31;;;18.30;54.30
78573;BME280;67862;0.000;0.000;2023-11-22T11:30:51;99374.03;;;18.30;54.24
78573;BME280;67862;0.000;0.000;2023-11-22T11:36:03;99378.66;;;18.29;54.27
78573;BME280;67862;0.000;0.000;2023-11-22T11:38:31;99378.66;;;18.29;53.82
78573;BME280;67862;0.000;0.000;2023-11-22T11:41:09;99379.47;;;18.30;53.98
78573;BME280;67862;0.000;0.000;2023-11-22T11:43:53;99379.47;;;18.30;54.12
78573;BME280;67862;0.000;0.000;2023-11-22T11:46:19;99387.63;;;18.30;54.19
78573;BME280;67862;0.000;0.000;2023-11-22T11:48:47;99390.34;;;18.30;54.01
78573;BME280;67862;0.000;0.000;2023-11-22T11:51:14;99395.78;;;18.30;53.98
78573;BME280;67862;0.000;0.000;2023-11-22T11:53:39;99391.97;;;18.31;53.97
78573;BME280;67862;0.000;0.000;2023-11-22T11:56:05;99394.69;;;18.31;54.01
78573;BME280;67862;0.000;0.000;2023-11-22T11:58:30;99393.88;;;18.30;54.04
78573;BME280;67862;0.000;0.000;2023-11-22T12:00:56;99400.66;;;18.28;53.96
78573;BME280;67862;0.000;0.000;2023-11-22T12:03:22;99398.75;;;18.28;53.94
78573;BME280;67862;0.000;0.000;2023-11-22T12:05:48;99397.94;;;18.28;54.06
78573;BME280;67862;0.000;0.000;2023-11-22T12:08:17;99400.66;;;18.28;53.96
78573;BME280;67862;0.000;0.000;2023-11-22T12:10:44;99403.38;;;18.28;53.86
78573;BME280;67862;0.000;0.000;2023-11-22T12:13:13;99397.69;;;18.29;54.06
78573;BME280;67862;0.000;0.000;2023-11-22T12:15:41;99403.38;;;18.28;54.06
78573;BME280;67862;0.000;0.000;2023-11-22T12:18:07;99398.50;;;18.30;53.99
78573;BME280;67862;0.000;0.000;2023-11-22T12:20:32;99401.53;;;18.34;54.14
78573;BME280;67862;0.000;0.000;2023-11-22T12:22:58;99397.41;;;18.31;54.01
78573;BME280;67862;0.000;0.000;2023-11-22T12:25:27;99388.75;;;18.34;53.77
78573;BME280;67862;0.000;0.000;2023-11-22T12:27:56;99397.72;;;18.35;53.95
78573;BME280;67862;0.000;0.000;2023-11-22T12:30:31;99411.53;;;18.33;53.74
78573;BME280;67862;0.000;0.000;2023-11-22T12:33:01;99416.44;;;18.31;54.07
78573;BME280;67862;0.000;0.000;2023-11-22T12:35:27;99420.25;;;18.30;53.98
78573;BME280;67862;0.000;0.000;2023-11-22T12:37:53;99426.50;;;18.30;54.05
78573;BME280;67862;0.000;0.000;2023-11-22T12:40:20;99436.53;;;18.30;53.82
78573;BME280;67862;0.000;0.000;2023-11-22T12:42:48;99436.00;;;18.28;54.01
78573;BME280;67862;0.000;0.000;2023-11-22T12:45:18;99441.44;;;18.28;54.03
78573;BME280;67862;0.000;0.000;2023-11-22T12:47:44;99446.31;;;18.26;53.83
78573;BME280;67862;0.000;0.000;2023-11-22T12:50:28;99452.31;;;18.28;53.87
78573;BME280;67862;0.000;0.000;2023-11-22T12:52:55;99448.75;;;18.27;53.89
78573;BME280;67862;0.000;0.000;2023-11-22T12:55:20;99451.22;;;18.29;53.72
78573;BME280;67862;0.000;0.000;2023-11-22T12:57:55;99457.72;;;18.28;53.81
78573;BME280;67862;0.000;0.000;2023-11-22T13:00:21;99457.72;;;18.28;53.77
78573;BME280;67862;0.000;0.000;2023-11-22T13:02:46;99466.44;;;18.30;53.45
78573;BME280;67862;0.000;0.000;2023-11-22T13:05:12;99470.22;;;18.29;53.69
78573;BME280;67862;0.000;0.000;2023-11-22T13:07:40;99464.00;;;18.28;53.77